Airway Heights, Washington
Current Conditions -  °F | °C
As of 6:53 AM on Sunday 21 Dec 2014 (Local Time) from KGEG Reporting Station
Broken Clouds Broken Clouds  
Wind Chill: 31°   Ceiling: 25000
Heat Index: 40°   Visibility: 10mi
Dew Point: 36°   Wind: 16mph
Humidity: 86%   Direction: 260°W
Pressure: 29.62"   Gusts: NA
Location:  47.64°N, 117.59°W
Report Text: KGEG 211453Z 26014KT 10SM FEW012 FEW050 FEW140 BKN250 04/02 A2962 RMK AO2 SLP041 T00440022 53029
Loading
Personal Weather Stations






























Interactive Weather Map New forecast layout! Learn more

10-Day Weather Forecast

Advertisements
Track Severe Weather on mobile